createdAt,value
2023-01-09T00:02:06.880Z,5.20
2023-01-09T00:04:33.768Z,5.88
2023-01-09T00:07:00.635Z,5.50
2023-01-09T00:09:27.552Z,2.58
2023-01-09T00:11:57.619Z,3.47
2023-01-09T00:14:24.547Z,1.13
2023-01-09T00:16:54.115Z,3.60
2023-01-09T00:19:21.059Z,4.30
2023-01-09T00:21:48.421Z,3.25
2023-01-09T00:24:15.202Z,2.35
2023-01-09T00:26:42.073Z,3.28
2023-01-09T00:29:11.083Z,2.88
2023-01-09T00:31:37.888Z,2.85
2023-01-09T00:34:10.523Z,1.88
2023-01-09T00:36:37.634Z,1.92
2023-01-09T00:39:05.898Z,5.53
2023-01-09T00:41:43.065Z,2.83
2023-01-09T00:44:18.078Z,3.95
2023-01-09T00:46:50.586Z,3.53
2023-01-09T00:49:18.368Z,2.05
2023-01-09T00:51:45.402Z,4.72
2023-01-09T00:54:15.179Z,3.25
2023-01-09T00:56:42.485Z,1.30
2023-01-09T00:59:09.591Z,3.97
2023-01-09T01:01:36.571Z,3.13
2023-01-09T01:04:23.590Z,2.13
2023-01-09T01:07:09.059Z,2.50
2023-01-09T01:09:36.003Z,2.58
2023-01-09T01:12:07.158Z,5.80
2023-01-09T01:14:38.494Z,10.10
2023-01-09T01:17:06.740Z,4.25
2023-01-09T01:19:35.267Z,5.38
2023-01-09T01:22:03.011Z,7.55
2023-01-09T01:24:30.084Z,6.07
2023-01-09T01:26:56.977Z,3.10
2023-01-09T01:29:23.853Z,5.70
2023-01-09T01:31:52.223Z,5.40
2023-01-09T01:34:19.299Z,3.17
2023-01-09T01:36:46.159Z,3.60
2023-01-09T01:39:13.007Z,4.03
2023-01-09T01:41:39.956Z,6.70
2023-01-09T01:44:28.100Z,5.22
2023-01-09T01:46:56.642Z,3.30
2023-01-09T01:49:23.614Z,2.63
2023-01-09T01:51:53.745Z,5.57
2023-01-09T01:54:26.401Z,5.28
2023-01-09T01:56:58.536Z,3.65
2023-01-09T01:59:51.436Z,3.42
2023-01-09T02:02:25.250Z,4.97
2023-01-09T02:04:55.397Z,4.88
2023-01-09T02:07:22.359Z,10.23
2023-01-09T02:09:49.698Z,4.63
2023-01-09T02:12:23.721Z,5.65
2023-01-09T02:14:59.277Z,7.50
2023-01-09T02:17:43.243Z,3.50
2023-01-09T02:20:28.119Z,5.65
2023-01-09T02:23:07.003Z,5.53
2023-01-09T02:25:52.265Z,6.32
2023-01-09T02:28:40.231Z,4.93
2023-01-09T02:31:28.209Z,6.43
2023-01-09T02:34:02.202Z,4.30
2023-01-09T02:36:33.345Z,4.97
2023-01-09T02:39:19.529Z,5.53
2023-01-09T02:42:04.273Z,6.32
2023-01-09T02:44:32.854Z,6.15
2023-01-09T02:47:16.297Z,5.30
2023-01-09T02:49:46.674Z,6.80
2023-01-09T02:52:22.804Z,8.07
2023-01-09T02:55:19.623Z,5.68
2023-01-09T02:58:33.405Z,5.40
2023-01-09T03:01:12.500Z,9.02
2023-01-09T03:03:50.003Z,4.03
2023-01-09T03:06:32.035Z,9.23
2023-01-09T03:09:05.384Z,9.00
2023-01-09T03:11:40.163Z,5.53
2023-01-09T03:14:13.716Z,4.63
2023-01-09T03:16:43.002Z,5.03
2023-01-09T03:19:13.917Z,3.97
2023-01-09T03:21:42.252Z,5.00
2023-01-09T03:24:09.387Z,5.82
2023-01-09T03:26:36.725Z,6.20
2023-01-09T03:29:03.743Z,7.95
2023-01-09T03:31:30.646Z,7.82
2023-01-09T03:33:57.516Z,7.13
2023-01-09T03:36:24.738Z,6.53
2023-01-09T03:38:51.794Z,8.23
2023-01-09T03:41:19.651Z,5.65
2023-01-09T03:43:48.328Z,6.28
2023-01-09T03:46:16.486Z,10.05
2023-01-09T03:48:43.572Z,5.50
2023-01-09T03:51:10.633Z,8.07
2023-01-09T03:53:37.575Z,4.25
2023-01-09T03:56:04.555Z,8.32
2023-01-09T03:58:31.476Z,7.80
2023-01-09T04:01:00.664Z,7.70
2023-01-09T04:03:27.695Z,7.75
2023-01-09T04:05:54.696Z,6.00
2023-01-09T04:08:21.816Z,17.15
2023-01-09T04:10:50.379Z,9.90
2023-01-09T04:13:17.280Z,6.72
2023-01-09T04:15:44.426Z,7.93
2023-01-09T04:18:11.552Z,9.10
2023-01-09T04:20:38.541Z,8.65
2023-01-09T04:23:05.745Z,9.02
2023-01-09T04:25:32.600Z,5.85
2023-01-09T04:27:59.495Z,12.13
2023-01-09T04:30:26.597Z,9.65
2023-01-09T04:32:53.532Z,7.30
2023-01-09T04:35:20.620Z,9.35
2023-01-09T04:37:47.933Z,8.98
2023-01-09T04:40:15.351Z,10.63
2023-01-09T04:42:42.462Z,4.82
2023-01-09T04:45:11.413Z,10.48
2023-01-09T04:47:38.666Z,6.68
2023-01-09T04:50:05.944Z,9.00
2023-01-09T04:52:33.406Z,7.65
2023-01-09T04:55:00.316Z,4.60
2023-01-09T04:57:27.221Z,15.25
2023-01-09T04:59:54.396Z,6.38
2023-01-09T05:02:21.567Z,3.45
2023-01-09T05:04:48.536Z,8.43
2023-01-09T05:07:15.439Z,4.10
2023-01-09T05:09:42.964Z,9.55
2023-01-09T05:12:09.996Z,3.78
2023-01-09T05:14:36.842Z,11.88
2023-01-09T05:17:03.768Z,3.63
2023-01-09T05:19:30.754Z,9.75
2023-01-09T05:21:57.636Z,9.18
2023-01-09T05:24:24.467Z,4.88
2023-01-09T05:26:51.262Z,7.53
2023-01-09T05:29:18.155Z,4.68
2023-01-09T05:31:45.054Z,3.85
2023-01-09T05:34:11.938Z,6.13
2023-01-09T05:36:38.788Z,7.90
2023-01-09T05:39:05.697Z,7.90
2023-01-09T05:41:32.705Z,7.28
2023-01-09T05:43:59.844Z,9.02
2023-01-09T05:46:26.756Z,6.13
2023-01-09T05:48:53.678Z,10.02
2023-01-09T05:51:20.564Z,10.23
2023-01-09T05:53:47.507Z,8.85
2023-01-09T05:56:14.671Z,3.92
2023-01-09T05:58:41.751Z,6.95
2023-01-09T06:01:08.664Z,4.75
2023-01-09T06:03:35.523Z,8.02
2023-01-09T06:06:02.369Z,6.43
2023-01-09T06:08:29.248Z,6.20
2023-01-09T06:10:56.160Z,6.60
2023-01-09T06:13:23.001Z,5.03
2023-01-09T06:15:49.966Z,5.55
2023-01-09T06:18:16.929Z,5.28
2023-01-09T06:20:46.102Z,6.88
2023-01-09T06:23:13.748Z,14.13
2023-01-09T06:25:41.328Z,14.05
2023-01-09T06:28:08.363Z,4.88
2023-01-09T06:30:35.416Z,9.40
2023-01-09T06:33:02.470Z,5.90
2023-01-09T06:35:29.462Z,9.55
2023-01-09T06:37:58.425Z,4.07
2023-01-09T06:40:25.307Z,6.30
2023-01-09T06:42:52.208Z,5.30
2023-01-09T06:45:19.079Z,6.07
2023-01-09T06:47:45.965Z,11.30
2023-01-09T06:50:13.002Z,10.70
2023-01-09T06:52:40.110Z,14.88
2023-01-09T06:55:07.956Z,6.85
2023-01-09T06:57:35.180Z,11.00
2023-01-09T07:00:02.425Z,10.77
2023-01-09T07:02:29.371Z,7.78
2023-01-09T07:04:56.262Z,9.80
2023-01-09T07:07:23.496Z,10.70
2023-01-09T07:09:50.377Z,12.70
2023-01-09T07:12:17.338Z,9.55
2023-01-09T07:14:44.408Z,8.75
2023-01-09T07:17:14.392Z,10.27
2023-01-09T07:19:41.745Z,9.75
2023-01-09T07:22:08.891Z,8.55
2023-01-09T07:24:35.795Z,6.85
2023-01-09T07:27:03.109Z,12.18
2023-01-09T07:29:30.334Z,5.35
2023-01-09T07:31:57.288Z,9.57
2023-01-09T07:34:24.180Z,15.40
2023-01-09T07:36:51.306Z,6.93
2023-01-09T07:39:18.218Z,12.13
2023-01-09T07:41:45.180Z,16.38
2023-01-09T07:44:12.840Z,13.63
2023-01-09T07:46:39.840Z,7.55
2023-01-09T07:49:07.040Z,19.50
2023-01-09T07:51:33.953Z,7.63
2023-01-09T07:54:00.836Z,10.50
2023-01-09T07:56:27.684Z,4.90
2023-01-09T07:58:54.577Z,7.75
2023-01-09T08:01:21.645Z,8.27
2023-01-09T08:03:48.601Z,12.02
2023-01-09T08:06:15.473Z,7.70
2023-01-09T08:08:43.178Z,10.82
2023-01-09T08:11:10.344Z,8.60
2023-01-09T08:13:37.278Z,10.48
2023-01-09T08:16:04.520Z,8.07
2023-01-09T08:18:31.488Z,3.67
2023-01-09T08:20:58.401Z,4.93
2023-01-09T08:23:25.319Z,9.25
2023-01-09T08:25:53.329Z,1.20
2023-01-09T09:22:29.351Z,8.68
2023-01-09T09:24:56.347Z,6.70
2023-01-09T09:27:23.241Z,9.10
2023-01-09T09:29:50.244Z,4.70
2023-01-09T09:32:17.154Z,4.75
2023-01-09T09:34:44.020Z,6.47
2023-01-09T09:37:11.963Z,5.68
2023-01-09T09:39:38.861Z,6.50
2023-01-09T09:42:45.556Z,5.53
2023-01-09T09:45:34.823Z,6.68
2023-01-09T09:48:10.618Z,4.25
2023-01-09T09:50:40.316Z,10.82
2023-01-09T15:22:37.262Z,17.15
2023-01-09T15:25:38.033Z,12.80
2023-01-09T15:28:28.136Z,15.25
2023-01-09T15:31:16.593Z,18.73
2023-01-09T15:33:46.449Z,15.77
2023-01-09T15:36:27.312Z,10.35
2023-01-09T15:38:54.738Z,15.38
2023-01-09T15:41:48.617Z,11.43
2023-01-09T15:44:26.239Z,18.95
2023-01-09T15:46:58.764Z,16.27
2023-01-09T15:49:26.384Z,11.48
2023-01-09T15:51:54.100Z,13.13
2023-01-09T15:54:30.644Z,12.13
2023-01-09T15:57:25.404Z,16.23
2023-01-09T15:59:53.161Z,14.77
2023-01-09T16:02:40.493Z,16.48
2023-01-09T16:05:14.095Z,14.65
2023-01-09T16:07:51.421Z,20.38
2023-01-09T16:10:30.273Z,19.92
2023-01-09T16:12:57.768Z,17.67
2023-01-09T16:15:25.704Z,13.05
2023-01-09T16:18:30.241Z,17.35
2023-01-09T16:21:12.511Z,23.40
2023-01-09T16:23:51.833Z,19.40
2023-01-09T16:26:23.671Z,15.50
2023-01-09T16:28:50.993Z,23.98
2023-01-09T16:31:27.970Z,12.05
2023-01-09T16:33:59.195Z,41.75
2023-01-09T16:36:27.559Z,15.23
2023-01-09T16:38:54.865Z,25.00
2023-01-09T16:41:40.760Z,18.75
2023-01-09T16:47:12.357Z,21.38
2023-01-09T16:49:39.256Z,19.23
2023-01-09T16:52:18.301Z,23.55
2023-01-09T16:54:47.368Z,16.55
2023-01-09T16:57:18.795Z,15.93
2023-01-09T16:59:46.457Z,19.92
2023-01-09T17:02:20.854Z,20.33
2023-01-09T17:04:47.832Z,23.77
2023-01-09T17:07:16.387Z,21.55
2023-01-09T17:09:44.059Z,16.40
2023-01-09T17:12:22.482Z,25.50
2023-01-09T17:14:49.931Z,19.75
2023-01-09T17:17:18.125Z,16.55
2023-01-09T17:19:46.827Z,13.57
2023-01-09T17:22:14.421Z,12.60
2023-01-09T17:25:00.355Z,17.83
2023-01-09T17:27:56.560Z,7.72
2023-01-09T17:30:23.571Z,8.18
2023-01-09T17:32:50.520Z,13.90
2023-01-09T17:35:17.502Z,13.68
2023-01-09T17:37:44.605Z,15.25
2023-01-09T17:40:23.483Z,20.60
2023-01-09T17:42:50.335Z,10.13
2023-01-09T17:45:17.316Z,17.70
2023-01-09T17:47:44.282Z,19.52
2023-01-09T17:50:19.805Z,12.43
2023-01-09T17:52:47.898Z,14.23
2023-01-09T17:55:15.300Z,10.88
2023-01-09T17:57:45.596Z,21.60
2023-01-09T18:00:24.770Z,18.40
2023-01-09T18:02:52.385Z,17.90
2023-01-09T18:05:20.038Z,8.30
2023-01-09T18:07:46.972Z,9.23
2023-01-09T18:10:15.992Z,11.57
2023-01-09T18:12:43.003Z,10.93
2023-01-09T18:15:10.235Z,15.68
2023-01-09T18:17:37.144Z,11.30
2023-01-09T18:20:04.683Z,13.35
2023-01-09T18:22:33.700Z,10.73
2023-01-09T18:25:00.877Z,12.32
2023-01-09T18:27:28.484Z,9.43
2023-01-09T18:29:56.839Z,8.80
2023-01-09T18:32:24.647Z,8.05
2023-01-09T18:34:51.581Z,13.82
2023-01-09T18:37:18.530Z,10.05
2023-01-09T18:39:45.468Z,12.70
2023-01-09T18:42:12.529Z,8.55
2023-01-09T18:44:39.385Z,16.60
2023-01-09T18:47:06.314Z,12.05
2023-01-09T18:49:33.205Z,12.25
2023-01-09T18:52:00.184Z,7.03
2023-01-09T18:54:27.142Z,12.32
2023-01-09T18:56:54.028Z,8.20
2023-01-09T18:59:20.871Z,8.98
2023-01-09T19:01:47.791Z,8.23
2023-01-09T19:04:14.813Z,8.25
2023-01-09T19:06:41.812Z,12.40
2023-01-09T19:09:08.682Z,11.18
2023-01-09T19:11:35.539Z,9.75
2023-01-09T19:14:02.512Z,9.65
2023-01-09T19:16:29.476Z,10.38
2023-01-09T19:18:58.159Z,15.88
2023-01-09T19:21:26.918Z,12.43
2023-01-09T19:23:54.823Z,10.65
2023-01-09T19:26:27.465Z,11.57
2023-01-09T19:28:57.337Z,15.93
2023-01-09T19:31:25.895Z,6.47
2023-01-09T19:33:52.944Z,8.32
2023-01-09T19:36:21.168Z,6.03
2023-01-09T19:38:48.293Z,14.65
2023-01-09T19:41:19.364Z,12.93
2023-01-09T19:43:47.478Z,9.75
2023-01-09T19:46:18.557Z,9.80
2023-01-09T19:48:45.723Z,9.00
2023-01-09T19:51:14.224Z,11.68
2023-01-09T19:53:41.591Z,16.00
2023-01-09T19:56:18.603Z,13.20
2023-01-09T19:58:59.360Z,12.40
2023-01-09T20:01:32.588Z,14.50
2023-01-09T20:04:05.064Z,13.50
2023-01-09T20:07:12.732Z,16.33
2023-01-09T20:09:39.601Z,22.05
2023-01-09T20:12:06.732Z,18.88
2023-01-09T20:14:36.484Z,13.48
2023-01-09T20:17:04.229Z,13.05
2023-01-09T20:19:32.826Z,14.25
2023-01-09T20:22:00.533Z,16.10
2023-01-09T20:25:30.760Z,18.33
2023-01-09T20:27:58.302Z,20.98
2023-01-09T20:30:25.378Z,17.70
2023-01-09T20:32:52.667Z,11.93
2023-01-09T20:35:22.456Z,20.13
2023-01-09T20:37:49.420Z,21.27
2023-01-09T20:40:16.752Z,14.95
2023-01-09T20:42:43.715Z,29.58
2023-01-09T20:45:10.952Z,16.25
2023-01-09T20:47:38.057Z,22.33
2023-01-09T20:50:05.458Z,16.00
2023-01-09T20:52:32.355Z,6.45
2023-01-09T20:54:59.363Z,14.52
2023-01-09T20:57:27.393Z,16.42
2023-01-09T21:04:12.684Z,21.55
2023-01-09T21:06:39.852Z,15.85
2023-01-09T21:09:06.907Z,25.67
2023-01-09T21:11:33.874Z,22.90
2023-01-09T21:14:00.875Z,16.25
2023-01-09T21:16:27.947Z,23.15
2023-01-09T21:18:55.180Z,21.33
2023-01-09T21:21:27.326Z,12.65
2023-01-09T21:26:28.266Z,23.98
2023-01-09T21:28:57.237Z,21.27
2023-01-09T21:31:34.108Z,20.25
2023-01-09T21:34:04.718Z,13.02
2023-01-09T21:36:32.159Z,12.65
2023-01-09T21:38:59.499Z,16.38
2023-01-09T21:41:45.334Z,20.23
2023-01-09T21:44:31.682Z,15.40
2023-01-09T21:47:02.671Z,24.10
2023-01-09T21:49:34.811Z,9.35
2023-01-09T21:52:03.816Z,19.27
2023-01-09T21:54:31.479Z,18.15
2023-01-09T21:56:59.039Z,22.20
2023-01-09T21:59:26.720Z,22.20
2023-01-09T22:01:53.665Z,14.93
2023-01-09T22:04:24.365Z,14.85
2023-01-09T22:06:51.490Z,15.18
2023-01-09T22:09:18.508Z,13.98
2023-01-09T22:11:45.560Z,21.48
2023-01-09T22:14:19.922Z,13.27
2023-01-09T22:16:47.436Z,15.05
2023-01-09T22:19:17.967Z,17.40
2023-01-09T22:21:45.474Z,19.67
2023-01-09T22:24:17.653Z,21.08
2023-01-09T22:26:45.410Z,28.08
2023-01-09T22:29:12.437Z,18.42
2023-01-09T22:31:40.096Z,16.60
2023-01-09T22:34:07.598Z,15.70
2023-01-09T22:36:34.584Z,17.90
2023-01-09T22:39:01.687Z,13.85
2023-01-09T22:42:19.755Z,15.05
2023-01-09T22:44:46.616Z,12.73
2023-01-09T22:47:13.473Z,15.40
2023-01-09T22:49:52.313Z,16.17
2023-01-09T22:52:20.016Z,22.10
2023-01-09T22:54:47.195Z,26.15
2023-01-09T22:57:14.273Z,16.48
2023-01-09T22:59:41.164Z,19.13
2023-01-09T23:02:08.183Z,18.65
2023-01-09T23:04:35.176Z,16.15
2023-01-09T23:07:02.128Z,19.52
2023-01-09T23:09:28.967Z,12.20
2023-01-09T23:12:05.324Z,10.07
2023-01-09T23:14:35.881Z,19.48
2023-01-09T23:17:07.359Z,18.42
2023-01-09T23:19:35.175Z,18.95
2023-01-09T23:22:03.477Z,19.85
2023-01-09T23:24:41.180Z,17.95
2023-01-09T23:27:08.134Z,11.73
2023-01-09T23:29:38.504Z,19.30
2023-01-09T23:32:07.114Z,20.23
2023-01-09T23:34:34.143Z,22.25
2023-01-09T23:37:01.203Z,24.30
2023-01-09T23:39:28.141Z,22.13
2023-01-09T23:42:13.389Z,20.10
2023-01-09T23:44:40.284Z,13.05
2023-01-09T23:47:07.464Z,20.23
2023-01-09T23:49:34.324Z,16.33
2023-01-09T23:52:02.388Z,11.52
2023-01-09T23:54:29.245Z,18.73
2023-01-09T23:56:56.570Z,14.32
2023-01-09T23:59:23.685Z,16.10
